Time;durP1;ratioP1;P1;durP2;ratioP2;P2;SDS_P1;SDS_P2;PMS_P1;PMS_P2;Temp;Humidity;BMP_temperature;BMP_pressure;BME280_temperature;BME280_humidity;BME280_pressure;Samples;Min_cycle;Max_cycle;Signal;HPM_P1;HPM_P2
2022/05/26 00:00:13;;;;;;;4.78;3.25;;;;;;;11.68;100.00;99003.69;4484767;32;20149;-71
2022/05/26 00:02:40;;;;;;;5.47;3.40;;;;;;;11.65;100.00;99008.41;4485333;31;20123;-71
2022/05/26 00:05:08;;;;;;;6.90;3.45;;;;;;;11.57;100.00;99003.00;4485174;31;20084;-71
2022/05/26 00:07:35;;;;;;;4.15;3.10;;;;;;;11.54;100.00;99007.56;4485143;31;20104;-71
2022/05/26 00:10:03;;;;;;;10.82;3.75;;;;;;;11.50;100.00;99015.84;4485224;32;20087;-71
2022/05/26 00:12:32;;;;;;;4.75;3.10;;;;;;;11.42;100.00;99013.09;4485197;32;20084;-71
2022/05/26 00:14:59;;;;;;;5.00;2.92;;;;;;;11.33;100.00;99018.16;4484633;31;20115;-72
2022/05/26 00:17:28;;;;;;;6.43;3.70;;;;;;;11.35;100.00;99010.16;4484832;32;20155;-71
2022/05/26 00:19:55;;;;;;;4.32;3.33;;;;;;;11.29;100.00;99014.16;4484867;31;20111;-71
2022/05/26 00:22:22;;;;;;;5.37;3.50;;;;;;;11.26;100.00;99008.34;4484967;32;20492;-71
2022/05/26 00:24:50;;;;;;;5.20;3.80;;;;;;;11.22;100.00;99007.81;4485149;32;20096;-71
2022/05/26 00:27:17;;;;;;;5.90;3.85;;;;;;;11.25;100.00;99011.94;4485052;31;20118;-71
2022/05/26 00:29:44;;;;;;;5.03;3.92;;;;;;;11.26;100.00;99013.59;4484975;31;20095;-71
2022/05/26 00:32:12;;;;;;;6.18;3.58;;;;;;;11.22;100.00;99013.06;4485009;32;20521;-71
2022/05/26 00:34:39;;;;;;;4.97;3.33;;;;;;;11.23;100.00;99009.44;4484884;31;20100;-71
2022/05/26 00:37:08;;;;;;;6.72;3.72;;;;;;;11.27;100.00;99016.09;4484927;31;20116;-71
2022/05/26 00:39:36;;;;;;;6.10;3.62;;;;;;;11.28;100.00;99009.03;4484728;31;20092;-71
2022/05/26 00:42:05;;;;;;;7.28;3.62;;;;;;;11.18;100.00;99015.09;4484876;31;20084;-71
2022/05/26 00:44:33;;;;;;;5.57;3.80;;;;;;;11.17;100.00;99020.47;4484992;31;20123;-71
2022/05/26 00:47:04;;;;;;;6.30;3.67;;;;;;;11.16;100.00;99017.03;4484634;31;20486;-71
2022/05/26 00:49:42;;;;;;;7.97;4.57;;;;;;;11.09;100.00;99017.72;4485113;32;20084;-71
2022/05/26 00:52:17;;;;;;;5.70;3.62;;;;;;;11.07;100.00;99025.72;4483583;32;20135;-71
2022/05/26 00:54:45;;;;;;;12.32;4.45;;;;;;;11.08;100.00;99022.12;4484674;31;20103;-71
2022/05/26 00:57:19;;;;;;;5.90;4.18;;;;;;;11.11;100.00;99021.88;4484632;31;20096;-71
2022/05/26 00:59:47;;;;;;;6.27;4.37;;;;;;;11.06;100.00;99033.72;4483273;32;20123;-71
2022/05/26 01:02:18;;;;;;;7.03;4.25;;;;;;;11.10;100.00;99030.69;4483208;32;20195;-71
2022/05/26 01:04:53;;;;;;;8.88;4.95;;;;;;;11.06;100.00;99042.41;4483126;32;20510;-71
2022/05/26 01:07:26;;;;;;;5.78;3.83;;;;;;;11.08;100.00;99048.34;4483581;32;20092;-71
2022/05/26 01:09:53;;;;;;;5.97;4.12;;;;;;;11.10;100.00;99054.28;4484363;31;20111;-71
2022/05/26 01:12:21;;;;;;;6.75;4.07;;;;;;;11.03;100.00;99060.19;4484332;31;20118;-71
2022/05/26 01:14:54;;;;;;;5.90;3.97;;;;;;;11.05;100.00;99056.47;4484170;31;20096;-71
2022/05/26 01:17:21;;;;;;;5.55;4.40;;;;;;;11.17;100.00;99060.66;4484492;31;20081;-71
2022/05/26 01:20:10;;;;;;;6.82;4.50;;;;;;;11.18;100.00;99048.37;4484280;31;20198;-71
2022/05/26 01:23:06;;;;;;;5.32;3.90;;;;;;;11.16;100.00;99056.37;4484210;31;20104;-71
2022/05/26 01:25:55;;;;;;;8.80;4.72;;;;;;;11.13;100.00;99046.16;4484275;31;20441;-71
2022/05/26 01:28:49;;;;;;;7.62;4.43;;;;;;;11.00;100.00;99054.25;4486199;31;20114;-71
2022/05/26 01:31:54;;;;;;;7.87;4.47;;;;;;;10.98;100.00;99052.72;4485915;31;20127;-71
2022/05/26 01:34:27;;;;;;;;;;;;;;;10.89;100.00;99053.53;4486511;32;20172;-71
2022/05/26 01:37:00;;;;;;;6.60;4.03;;;;;;;10.91;100.00;99048.97;4486256;31;20015;-71
2022/05/26 01:40:35;;;;;;;7.50;4.50;;;;;;;10.96;100.00;99052.00;4486084;31;20104;-71
2022/05/26 01:43:11;;;;;;;7.47;4.12;;;;;;;10.97;100.00;99061.56;4415190;32;20106;-71
2022/05/26 01:45:40;;;;;;;5.60;3.78;;;;;;;10.94;100.00;99061.81;4421373;32;20561;-71
2022/05/26 01:48:14;;;;;;;7.62;4.40;;;;;;;10.93;100.00;99060.16;4421659;32;20163;-71
2022/05/26 01:50:48;;;;;;;7.15;4.20;;;;;;;10.94;100.00;99061.81;4421402;32;20106;-71
2022/05/26 01:53:20;;;;;;;6.80;4.12;;;;;;;10.92;100.00;99059.31;4421832;32;20125;-71
2022/05/26 01:56:16;;;;;;;7.68;4.50;;;;;;;10.91;100.00;99077.81;4408798;32;20094;-71
2022/05/26 01:58:48;;;;;;;6.35;4.68;;;;;;;10.92;100.00;99079.47;4415823;32;20104;-71
2022/05/26 02:01:21;;;;;;;8.10;5.37;;;;;;;10.88;100.00;99068.41;4408681;32;20132;-71
2022/05/26 02:03:50;;;;;;;8.15;5.00;;;;;;;10.88;100.00;99072.81;4409035;32;20159;-71
2022/05/26 02:06:23;;;;;;;8.50;5.75;;;;;;;10.81;100.00;99081.22;4408564;32;20093;-71
2022/05/26 02:09:00;;;;;;;7.87;4.97;;;;;;;10.86;100.00;99086.06;4421609;32;20116;-71
2022/05/26 02:11:27;;;;;;;7.25;5.40;;;;;;;10.83;100.00;99076.66;4421226;32;20639;-71
2022/05/26 02:14:02;;;;;;;10.88;5.68;;;;;;;10.81;100.00;99077.78;4467757;32;20116;-71
2022/05/26 02:16:32;;;;;;;8.00;5.72;;;;;;;10.79;100.00;99080.50;4484847;32;20084;-71
2022/05/26 02:19:09;;;;;;;10.30;5.53;;;;;;;10.75;100.00;99088.75;4485999;31;20434;-71
2022/05/26 02:22:03;;;;;;;10.13;6.15;;;;;;;10.75;100.00;99086.13;4485846;31;20134;-71
2022/05/26 02:24:42;;;;;;;10.02;5.35;;;;;;;10.72;100.00;99100.34;4485948;32;20099;-71
2022/05/26 02:27:09;;;;;;;10.20;5.85;;;;;;;10.74;100.00;99103.66;4486005;31;20083;-71
2022/05/26 02:29:51;;;;;;;11.25;6.53;;;;;;;10.72;100.00;99109.97;4484521;32;20138;-71
2022/05/26 02:32:40;;;;;;;10.32;6.37;;;;;;;10.73;100.00;99096.75;4485901;31;20122;-71
2022/05/26 02:35:13;;;;;;;9.25;5.95;;;;;;;10.70;100.00;99104.03;4484609;32;20446;-71
2022/05/26 02:37:42;;;;;;;12.70;7.40;;;;;;;10.70;100.00;99104.88;4484655;32;20084;-71
2022/05/26 02:40:10;;;;;;;9.13;6.75;;;;;;;10.65;100.00;99102.63;4484164;32;20738;-71
2022/05/26 02:42:50;;;;;;;9.02;6.05;;;;;;;10.70;100.00;99115.34;4485648;31;20116;-70
2022/05/26 02:45:25;;;;;;;13.27;6.40;;;;;;;10.73;100.00;99115.09;4484608;32;20116;-71
2022/05/26 02:48:05;;;;;;;12.98;6.72;;;;;;;10.74;100.00;99111.53;4484356;32;20088;-71
2022/05/26 02:50:48;;;;;;;9.68;6.70;;;;;;;10.78;100.00;99112.06;4485864;31;20099;-71
2022/05/26 02:53:21;;;;;;;10.73;6.78;;;;;;;10.74;100.00;99114.12;4485712;31;20434;-71
2022/05/26 02:56:08;;;;;;;9.02;6.10;;;;;;;10.79;100.00;99116.37;4485728;31;20489;-71
2022/05/26 02:58:57;;;;;;;11.35;7.03;;;;;;;10.79;100.00;99119.00;4484277;32;20081;-71
2022/05/26 03:01:52;;;;;;;10.63;6.15;;;;;;;10.86;100.00;99116.69;4485613;31;20127;-71
2022/05/26 03:04:27;;;;;;;10.30;6.53;;;;;;;10.91;100.00;99120.56;4485496;32;20119;-71
2022/05/26 03:07:11;;;;;;;10.07;6.20;;;;;;;10.95;100.00;99121.16;4484263;32;20100;-71
2022/05/26 03:09:39;;;;;;;10.90;6.93;;;;;;;11.03;100.00;99128.38;4485636;31;20115;-71
2022/05/26 03:12:21;;;;;;;9.18;6.22;;;;;;;11.01;100.00;99125.88;4484115;32;20100;-71
2022/05/26 03:14:48;;;;;;;10.95;7.20;;;;;;;11.04;100.00;99130.84;4485673;31;20093;-71
2022/05/26 03:17:16;;;;;;;10.15;6.55;;;;;;;11.04;100.00;99130.84;4485281;31;20122;-71
2022/05/26 03:19:43;;;;;;;9.43;6.95;;;;;;;11.01;100.00;99142.41;4485490;31;20096;-71
2022/05/26 03:22:10;;;;;;;8.90;6.40;;;;;;;11.06;100.00;99136.78;4485441;31;20123;-71
2022/05/26 03:24:38;;;;;;;11.40;7.07;;;;;;;11.18;100.00;99138.34;4485157;32;20105;-71
2022/05/26 03:27:05;;;;;;;11.15;6.35;;;;;;;11.28;100.00;99145.41;4485463;31;20088;-71
2022/05/26 03:29:33;;;;;;;10.57;7.10;;;;;;;11.35;100.00;99149.19;4485556;31;20452;-71
2022/05/26 03:32:00;;;;;;;11.48;6.65;;;;;;;11.38;100.00;99146.28;4485179;31;20123;-71
2022/05/26 03:42:47;;;;;;;11.57;6.43;;;;;;;11.57;100.00;99150.78;4485252;31;20099;-71
2022/05/26 03:45:17;;;;;;;7.25;5.82;;;;;;;11.64;100.00;99158.94;4485246;32;20160;-71
2022/05/26 03:47:45;;;;;;;9.23;5.55;;;;;;;11.70;100.00;99148.75;4484027;32;20116;-71
2022/05/26 03:50:12;;;;;;;8.40;5.57;;;;;;;11.82;100.00;99157.31;4484303;32;20516;-71
2022/05/26 03:52:40;;;;;;;9.88;5.53;;;;;;;11.86;100.00;99161.34;4485086;31;20158;-71
2022/05/26 03:55:08;;;;;;;10.00;5.57;;;;;;;11.91;100.00;99166.19;4485245;31;20119;-71
2022/05/26 03:57:35;;;;;;;10.07;5.05;;;;;;;12.01;100.00;99166.25;4483750;32;20453;-71
2022/05/26 04:00:04;;;;;;;8.80;5.20;;;;;;;12.06;100.00;99164.03;4485055;32;20096;-71
2022/05/26 04:02:38;;;;;;;8.95;5.72;;;;;;;12.10;100.00;99175.91;4484922;31;20101;-73
2022/05/26 04:05:06;;;;;;;7.90;5.55;;;;;;;12.07;100.00;99177.00;4484845;31;20116;-72
2022/05/26 04:07:34;;;;;;;8.75;5.40;;;;;;;12.06;100.00;99185.84;4485085;32;20096;-73
2022/05/26 04:10:10;;;;;;;8.25;5.95;;;;;;;12.14;100.00;99193.06;4485121;31;20104;-73
2022/05/26 04:12:38;;;;;;;8.50;4.97;;;;;;;12.24;100.00;99198.31;4485185;32;20163;-72
2022/05/26 04:15:06;;;;;;;11.60;5.43;;;;;;;12.21;100.00;99194.16;4484971;31;20089;-72
2022/05/26 04:17:35;;;;;;;7.95;5.40;;;;;;;12.34;100.00;99193.06;4485074;31;20157;-71
2022/05/26 04:20:04;;;;;;;8.55;5.93;;;;;;;12.33;100.00;99202.75;4485259;31;20470;-72
2022/05/26 04:22:31;;;;;;;10.90;6.00;;;;;;;12.41;100.00;99199.44;4485162;31;20097;-72
2022/05/26 04:24:59;;;;;;;8.70;5.65;;;;;;;12.50;100.00;99208.28;4484942;32;20097;-72
2022/05/26 04:27:29;;;;;;;7.12;4.97;;;;;;;12.56;100.00;99203.28;4485033;32;20186;-71
2022/05/26 04:29:57;;;;;;;6.43;5.20;;;;;;;12.65;100.00;99212.16;4484849;31;20527;-72
2022/05/26 04:32:24;;;;;;;7.87;5.53;;;;;;;12.75;100.00;99210.34;4485026;31;20123;-72
2022/05/26 04:34:52;;;;;;;6.10;5.12;;;;;;;12.86;100.00;99213.78;4484773;31;20113;-72
2022/05/26 04:37:21;;;;;;;7.78;5.03;;;;;;;12.93;100.00;99217.53;4484997;31;20103;-72
2022/05/26 04:39:50;;;;;;;8.15;5.75;;;;;;;13.02;99.83;99210.56;4484722;31;20092;-72
2022/05/26 04:42:18;;;;;;;8.50;5.18;;;;;;;13.13;99.28;99210.41;4484915;32;20076;-71
2022/05/26 04:44:46;;;;;;;7.35;4.68;;;;;;;13.23;97.74;99223.53;4484277;31;20101;-72
2022/05/26 04:47:14;;;;;;;6.78;5.07;;;;;;;13.24;97.26;99231.28;4484459;31;20389;-72
2022/05/26 04:49:41;;;;;;;6.03;4.45;;;;;;;13.34;96.89;99222.56;4484806;32;20114;-72
2022/05/26 04:52:11;;;;;;;6.18;4.25;;;;;;;13.42;95.67;99215.59;4484501;31;20096;-72
2022/05/26 04:54:38;;;;;;;5.60;4.07;;;;;;;13.62;95.11;99224.25;4484487;31;20096;-72
2022/05/26 04:57:06;;;;;;;6.15;4.57;;;;;;;13.81;92.63;99230.41;4483309;32;20100;-72
2022/05/26 04:59:34;;;;;;;5.72;4.18;;;;;;;13.86;92.02;99233.44;4484505;31;20088;-72
2022/05/26 05:02:02;;;;;;;6.22;4.70;;;;;;;13.87;92.02;99239.50;4477585;31;20104;-72
2022/05/26 05:04:29;;;;;;;7.40;4.93;;;;;;;14.04;91.53;99240.56;4481092;32;20153;-72
2022/05/26 05:06:56;;;;;;;6.90;4.35;;;;;;;14.09;91.24;99246.19;4481395;31;20152;-73
2022/05/26 05:09:24;;;;;;;5.32;4.30;;;;;;;14.10;91.55;99245.22;4479515;32;20749;-71
2022/05/26 05:11:52;;;;;;;5.75;3.85;;;;;;;14.22;90.04;99244.03;4479548;32;20131;-73
2022/05/26 05:14:19;;;;;;;5.20;4.05;;;;;;;14.27;89.84;99244.41;4479848;32;20635;-72
2022/05/26 05:16:47;;;;;;;7.75;4.20;;;;;;;14.26;89.59;99253.31;4482894;31;20126;-72
2022/05/26 05:19:16;;;;;;;6.53;4.95;;;;;;;14.26;90.01;99248.03;4482941;31;20206;-73
2022/05/26 05:21:56;;;;;;;12.20;5.07;;;;;;;14.14;89.76;99265.00;4475216;32;20115;-72
2022/05/26 05:24:28;;;;;;;5.43;3.90;;;;;;;14.32;89.54;99249.22;4479221;32;20108;-72
2022/05/26 05:27:02;;;;;;;5.85;4.25;;;;;;;14.33;88.07;99254.34;4478109;31;20088;-72
2022/05/26 05:29:34;;;;;;;5.50;3.90;;;;;;;14.57;87.52;99260.84;4475433;32;20142;-72
2022/05/26 05:32:10;;;;;;;4.95;4.00;;;;;;;14.78;86.17;99270.31;4482822;32;20118;-72
2022/05/26 05:34:41;;;;;;;6.62;4.00;;;;;;;14.73;86.53;99262.81;4478940;32;20092;-73
2022/05/26 05:37:10;;;;;;;4.45;3.55;;;;;;;14.77;87.34;99274.75;4484124;31;20126;-73
2022/05/26 05:39:38;;;;;;;6.40;3.97;;;;;;;14.90;86.10;99274.38;4482950;31;20536;-73
2022/05/26 05:42:06;;;;;;;5.07;3.20;;;;;;;15.00;86.77;99282.19;4483169;31;20124;-72
2022/05/26 05:44:33;;;;;;;5.07;3.08;;;;;;;15.12;84.17;99285.41;4483722;31;20451;-73
2022/05/26 05:47:01;;;;;;;4.40;3.22;;;;;;;15.34;82.99;99290.19;4483505;31;20092;-73
2022/05/26 05:49:30;;;;;;;4.47;3.33;;;;;;;15.52;83.21;99284.00;4475655;31;20452;-72
2022/05/26 05:52:04;;;;;;;3.05;2.45;;;;;;;15.51;83.79;99290.28;4481577;31;20096;-72
2022/05/26 05:54:32;;;;;;;3.70;2.40;;;;;;;15.61;82.56;99285.75;4482141;31;20858;-72
2022/05/26 05:56:59;;;;;;;4.07;2.47;;;;;;;15.68;81.17;99286.75;4479435;32;20100;-72
2022/05/26 05:59:27;;;;;;;4.87;2.35;;;;;;;15.97;80.70;99282.94;4481552;31;20116;-73
2022/05/26 06:01:54;;;;;;;4.10;2.08;;;;;;;16.09;79.20;99276.41;4486991;31;20088;-74
2022/05/26 06:04:42;;;;;;;3.60;2.28;;;;;;;16.14;78.63;99268.81;4481924;31;20130;-74
2022/05/26 06:07:17;;;;;;;4.53;2.20;;;;;;;16.38;78.81;99288.38;4479799;32;20945;-72
2022/05/26 06:09:46;;;;;;;4.28;2.20;;;;;;;16.53;77.70;99283.25;4479922;31;20540;-74
2022/05/26 06:12:14;;;;;;;3.05;2.62;;;;;;;16.74;79.08;99290.72;4481096;31;20699;-74
2022/05/26 06:14:44;;;;;;;3.40;2.90;;;;;;;16.87;76.80;99292.94;4482779;31;20119;-74
2022/05/26 06:17:12;;;;;;;3.47;2.55;;;;;;;16.99;77.65;99302.19;4482850;32;20141;-73
2022/05/26 06:19:40;;;;;;;3.03;2.67;;;;;;;16.98;78.02;99307.66;4483504;31;20087;-73
2022/05/26 06:22:12;;;;;;;7.22;2.70;;;;;;;17.04;78.07;99317.59;4485763;31;20116;-73
2022/05/26 06:24:40;;;;;;;5.95;2.42;;;;;;;17.09;78.04;99315.25;4480623;32;20139;-74
2022/05/26 06:29:56;;;;;;;3.55;2.80;;;;;;;17.24;76.91;99333.13;4482936;32;20155;-73
2022/05/26 06:37:56;;;;;;;2.67;2.30;;;;;;;17.12;77.94;99346.72;4485920;31;20088;-73
2022/05/26 06:40:24;;;;;;;3.75;2.25;;;;;;;17.35;78.62;99352.16;4482896;31;20089;-74
2022/05/26 06:42:51;;;;;;;3.55;2.53;;;;;;;17.48;78.48;99351.66;4482168;31;20133;-74
2022/05/26 06:45:19;;;;;;;3.42;2.50;;;;;;;17.49;77.89;99350.66;4485336;32;20161;-73
2022/05/26 06:47:47;;;;;;;3.17;2.70;;;;;;;17.47;78.65;99339.41;4482320;31;20108;-74
2022/05/26 06:50:14;;;;;;;2.80;2.00;;;;;;;17.65;77.86;99348.97;4482635;31;20119;-74
2022/05/26 06:52:42;;;;;;;3.28;2.28;;;;;;;17.73;76.06;99344.50;4485666;31;20092;-75
2022/05/26 06:55:10;;;;;;;2.58;2.05;;;;;;;17.77;76.79;99342.31;4479872;31;20108;-75
2022/05/26 06:57:37;;;;;;;4.10;2.15;;;;;;;17.74;75.55;99347.97;4479949;32;20562;-74
2022/05/26 07:00:06;;;;;;;2.92;2.33;;;;;;;17.78;75.93;99340.53;4484174;32;20448;-74
2022/05/26 07:02:34;;;;;;;3.05;2.28;;;;;;;18.04;76.33;99335.00;4476696;32;20568;-73
2022/05/26 07:05:02;;;;;;;3.37;2.33;;;;;;;18.02;75.73;99326.41;4485102;31;20143;-75
2022/05/26 07:07:32;;;;;;;4.05;2.55;;;;;;;18.12;nan;99327.00;4481416;31;20498;-73
2022/05/26 07:10:00;;;;;;;2.78;1.90;;;;;;;18.02;75.35;99332.50;4484300;32;20797;-75
2022/05/26 07:12:33;;;;;;;;;;;;;;;18.37;76.23;99332.22;4485213;31;20129;-73
2022/05/26 07:15:03;;;;;;;2.80;1.95;;;;;;;18.38;73.72;99339.13;4483864;32;19999;-74
2022/05/26 07:17:30;;;;;;;3.40;1.70;;;;;;;18.51;71.81;99342.06;4481790;32;20104;-75
2022/05/26 07:19:58;;;;;;;4.30;1.90;;;;;;;18.30;72.26;99344.50;4484775;31;20100;-75
2022/05/26 07:22:25;;;;;;;5.93;3.20;;;;;;;18.29;72.98;99346.34;4484698;32;20100;-75
2022/05/26 07:24:52;;;;;;;3.87;1.80;;;;;;;18.27;72.29;99351.81;4484630;32;20116;-72
2022/05/26 07:27:19;;;;;;;3.08;2.20;;;;;;;18.17;73.79;99358.28;4483665;31;20157;-74
2022/05/26 07:29:53;;;;;;;3.55;1.90;;;;;;;18.22;74.00;99367.41;4483968;32;20111;-74
2022/05/26 07:32:22;;;;;;;3.67;2.25;;;;;;;18.40;72.47;99355.72;4467351;31;20103;-73
2022/05/26 07:34:49;;;;;;;5.03;1.70;;;;;;;18.35;72.99;99363.38;4487616;31;20101;-74
2022/05/26 07:42:51;;;;;;;4.37;1.90;;;;;;;18.60;72.83;99362.25;4480601;32;20153;-73
2022/05/26 07:45:19;;;;;;;4.80;1.92;;;;;;;18.81;71.79;99371.41;4475187;32;20108;-73
2022/05/26 07:47:47;;;;;;;5.70;2.08;;;;;;;18.65;70.09;99371.50;4474677;32;20132;-74
2022/05/26 07:50:21;;;;;;;2.17;1.70;;;;;;;18.85;71.37;99374.53;4478379;32;20105;-73
2022/05/26 07:52:50;;;;;;;2.37;1.85;;;;;;;18.90;71.45;99377.53;4481060;32;20084;-73
2022/05/26 07:55:18;;;;;;;4.18;2.00;;;;;;;18.85;69.85;99375.41;4479505;32;20468;-73
2022/05/26 07:57:46;;;;;;;2.85;2.00;;;;;;;18.72;70.08;99377.78;4481184;31;20092;-73
2022/05/26 08:00:15;;;;;;;3.92;2.00;;;;;;;18.79;70.66;99378.75;4477676;32;20084;-73
2022/05/26 08:02:42;;;;;;;4.15;2.22;;;;;;;18.86;71.06;99377.06;4482468;32;20556;-73
2022/05/26 08:05:10;;;;;;;3.62;1.80;;;;;;;18.87;70.86;99377.91;4480872;32;20154;-74
2022/05/26 08:07:38;;;;;;;4.00;1.90;;;;;;;19.03;69.94;99379.59;4479769;32;20096;-74
2022/05/26 08:10:06;;;;;;;3.28;1.50;;;;;;;19.12;70.43;99383.84;4479722;31;20150;-73
2022/05/26 08:12:33;;;;;;;2.65;1.80;;;;;;;19.10;68.13;99377.91;4480695;32;20084;-73
2022/05/26 08:15:00;;;;;;;2.22;1.77;;;;;;;19.26;68.25;99374.31;4483694;31;20096;-73
2022/05/26 08:17:28;;;;;;;1.58;1.48;;;;;;;19.18;67.53;99374.34;4482778;31;20124;-71
2022/05/26 08:19:55;;;;;;;6.28;1.98;;;;;;;19.26;67.68;99371.66;4480183;31;20118;-72
2022/05/26 08:22:22;;;;;;;3.78;2.10;;;;;;;19.42;67.27;99368.00;4474727;31;20134;-73
2022/05/26 08:24:51;;;;;;;2.67;1.45;;;;;;;19.52;66.35;99375.75;4482669;31;20105;-72
2022/05/26 08:27:19;;;;;;;3.00;1.55;;;;;;;19.62;63.18;99376.28;4481370;31;20096;-73
2022/05/26 08:29:47;;;;;;;7.20;1.85;;;;;;;19.52;63.51;99376.56;4476136;31;20449;-73
2022/05/26 08:32:16;;;;;;;2.67;1.87;;;;;;;19.55;63.63;99372.72;4479780;31;20084;-74
2022/05/26 08:34:45;;;;;;;3.58;2.00;;;;;;;19.47;62.72;99378.91;4478306;31;20100;-73
2022/05/26 08:37:15;;;;;;;2.30;1.90;;;;;;;19.55;63.80;99386.81;4471633;31;20135;-74
2022/05/26 08:39:42;;;;;;;4.47;1.67;;;;;;;19.65;64.30;99383.91;4475819;32;20146;-74
2022/05/26 08:42:31;;;;;;;6.32;2.15;;;;;;;20.01;62.65;99388.56;4476319;31;20088;-74
2022/05/26 08:45:06;;;;;;;1.50;1.40;;;;;;;20.00;61.74;99381.56;4470408;32;20173;-74
2022/05/26 08:47:37;;;;;;;2.17;1.70;;;;;;;20.27;60.96;99389.94;4478320;32;20158;-74
2022/05/26 08:50:16;;;;;;;3.45;2.10;;;;;;;19.99;60.91;99382.59;4469134;32;20223;-74
2022/05/26 08:52:47;;;;;;;4.05;1.35;;;;;;;19.99;59.95;99388.75;4475757;32;21137;-73
2022/05/26 08:55:19;;;;;;;3.90;1.75;;;;;;;20.01;58.79;99384.06;4477570;32;20147;-74
2022/05/26 08:58:13;;;;;;;1.90;1.50;;;;;;;20.21;60.50;99391.47;4477082;31;20104;-73
2022/05/26 09:00:42;;;;;;;3.83;1.42;;;;;;;20.19;58.30;99385.53;4478143;32;20167;-74
2022/05/26 09:03:21;;;;;;;3.92;1.50;;;;;;;20.44;59.25;99386.06;4472665;32;20091;-77
2022/05/26 09:05:59;;;;;;;3.80;1.90;;;;;;;20.51;57.00;99386.94;4478892;32;20799;-75
2022/05/26 09:14:02;;;;;;;4.15;1.10;;;;;;;20.71;57.70;99392.56;4480141;32;20125;-74
2022/05/26 09:16:33;;;;;;;2.20;1.25;;;;;;;20.78;55.56;99391.81;4477957;31;20127;-73
2022/05/26 09:19:12;;;;;;;2.47;1.30;;;;;;;20.83;56.35;99395.56;4474833;32;20511;-74
2022/05/26 09:21:40;;;;;;;1.75;1.65;;;;;;;20.89;55.48;99391.31;4477276;32;20155;-74
2022/05/26 09:24:29;;;;;;;2.50;1.67;;;;;;;21.24;54.84;99396.75;4480346;31;20477;-73
2022/05/26 09:26:59;;;;;;;3.90;1.52;;;;;;;21.19;53.01;99401.84;4479426;32;20187;-74
2022/05/26 09:29:28;;;;;;;1.60;1.05;;;;;;;21.42;52.27;99391.81;4480025;32;20659;-73
2022/05/26 09:31:58;;;;;;;5.72;1.30;;;;;;;21.66;50.65;99400.44;4475402;32;20191;-74
2022/05/26 09:35:08;;;;;;;1.92;1.65;;;;;;;21.49;52.56;99389.19;4469733;32;20112;-73
2022/05/26 09:37:38;;;;;;;1.65;1.02;;;;;;;21.77;49.86;99389.25;4474850;32;20390;-73
2022/05/26 09:40:17;;;;;;;3.30;1.20;;;;;;;21.85;49.75;99387.41;4478163;32;20168;-72
2022/05/26 09:42:46;;;;;;;1.33;1.08;;;;;;;21.84;48.89;99383.13;4481989;32;20088;-72
2022/05/26 09:45:17;;;;;;;3.22;1.20;;;;;;;22.04;49.33;99384.06;4479754;31;20107;-73
2022/05/26 09:47:59;;;;;;;3.62;1.10;;;;;;;21.96;48.79;99378.91;4477740;32;20147;-72
2022/05/26 09:50:37;;;;;;;1.17;0.80;;;;;;;22.33;48.45;99375.00;4478963;32;20089;-73
2022/05/26 09:53:09;;;;;;;1.50;0.65;;;;;;;22.05;47.16;99382.22;4479987;32;20481;-72
2022/05/26 09:55:45;;;;;;;3.17;1.62;;;;;;;21.93;46.04;99384.63;4483259;32;20088;-72
2022/05/26 09:58:27;;;;;;;1.00;0.60;;;;;;;21.84;43.88;99381.28;4474592;32;20266;-71
2022/05/26 10:01:00;;;;;;;5.95;0.90;;;;;;;21.92;43.72;99388.28;4484346;31;20201;-72
2022/05/26 10:03:32;;;;;;;2.70;0.73;;;;;;;21.95;44.34;99385.25;4483503;31;20603;-73
2022/05/26 10:06:08;;;;;;;5.62;1.10;;;;;;;21.90;44.39;99385.00;4489167;31;20414;-74
2022/05/26 10:08:59;;;;;;;3.80;1.10;;;;;;;22.09;46.73;99384.31;4483764;31;20436;-74
2022/05/26 10:12:01;;;;;;;6.78;1.20;;;;;;;22.08;47.34;99382.66;4419183;32;20127;-73
2022/05/26 10:14:52;;;;;;;1.80;0.93;;;;;;;22.19;48.02;99389.28;4418824;32;20101;-72
2022/05/26 10:17:28;;;;;;;0.77;0.60;;;;;;;22.22;43.20;99380.06;4405803;32;20159;-72
2022/05/26 10:20:10;;;;;;;6.25;1.15;;;;;;;22.36;41.03;99376.44;4406067;32;20177;-73
2022/05/26 10:23:01;;;;;;;2.50;0.60;;;;;;;22.38;41.99;99385.09;4420159;32;20112;-73
2022/05/26 10:25:49;;;;;;;1.52;0.50;;;;;;;22.36;38.78;99381.78;4419844;32;20114;-73
2022/05/26 10:28:27;;;;;;;2.60;0.65;;;;;;;22.55;39.98;99380.22;4408736;32;20109;-75
2022/05/26 10:31:45;;;;;;;0.80;0.40;;;;;;;22.64;37.14;99386.22;4414727;32;20504;-75
2022/05/26 10:34:35;;;;;;;1.42;0.65;;;;;;;22.63;38.24;99382.69;4337444;32;20136;-76
2022/05/26 10:37:44;;;;;;;1.37;0.70;;;;;;;22.74;39.19;99375.97;4331158;33;20088;-74
2022/05/26 10:40:21;;;;;;;4.40;1.25;;;;;;;22.65;39.69;99377.16;4316966;33;20139;-76
2022/05/26 10:42:57;;;;;;;1.00;0.68;;;;;;;22.90;39.18;99374.78;4329777;33;20154;-75
2022/05/26 10:45:36;;;;;;;1.98;0.70;;;;;;;23.18;42.00;99379.16;4319402;33;20215;-73
2022/05/26 10:48:08;;;;;;;1.17;0.77;;;;;;;22.98;40.28;99379.94;4330029;32;20106;-74
2022/05/26 10:50:46;;;;;;;3.12;0.80;;;;;;;22.81;40.58;99376.81;4369428;32;20107;-75
2022/05/26 10:53:28;;;;;;;2.47;0.85;;;;;;;22.36;41.76;99383.63;4375164;32;20102;-75
2022/05/26 10:56:13;;;;;;;1.00;0.80;;;;;;;22.81;40.75;99379.47;4372392;32;20113;-76
2022/05/26 10:58:53;;;;;;;4.68;1.02;;;;;;;23.01;40.32;99370.69;4369339;32;22546;-74
2022/05/26 11:01:35;;;;;;;0.93;0.80;;;;;;;23.21;41.06;99376.91;4372572;32;20086;-75
2022/05/26 11:04:34;;;;;;;0.90;0.73;;;;;;;23.09;41.48;99373.19;4378540;32;20156;-75
2022/05/26 11:07:05;;;;;;;1.15;0.90;;;;;;;23.29;42.11;99380.41;4409506;32;20122;-74
2022/05/26 11:09:46;;;;;;;2.50;1.00;;;;;;;23.60;40.61;99370.94;4397358;32;20181;-74
2022/05/26 11:12:33;;;;;;;2.90;0.75;;;;;;;23.32;40.73;99372.00;4416521;32;20473;-74
2022/05/26 11:18:07;;;;;;;3.28;0.95;;;;;;;23.55;40.38;99361.69;4471856;32;20127;-74
2022/05/26 11:20:39;;;;;;;1.90;0.80;;;;;;;23.45;40.10;99357.78;4483158;31;20151;-74
2022/05/26 11:23:07;;;;;;;1.12;0.77;;;;;;;23.23;41.55;99362.53;4474475;32;20081;-74
2022/05/26 11:25:39;;;;;;;3.22;0.90;;;;;;;23.24;40.67;99356.97;4479975;32;20139;-73
2022/05/26 11:28:15;;;;;;;1.95;0.70;;;;;;;23.49;39.70;99356.34;4472682;32;20104;-75
2022/05/26 11:36:46;;;;;;;3.78;0.73;;;;;;;23.95;39.11;99344.75;4484252;31;20104;-74
2022/05/26 11:39:20;;;;;;;1.80;0.77;;;;;;;23.56;39.40;99349.16;4480339;31;20107;-74
2022/05/26 11:41:52;;;;;;;3.10;0.80;;;;;;;23.53;41.38;99350.38;4477511;31;20188;-75
2022/05/26 11:44:40;;;;;;;1.60;1.40;;;;;;;23.68;41.41;99350.16;4482442;31;20084;-75
2022/05/26 11:47:30;;;;;;;1.70;0.60;;;;;;;24.28;39.81;99338.47;4481029;32;20135;-76
2022/05/26 11:49:57;;;;;;;0.65;0.62;;;;;;;24.17;38.35;99339.97;4478683;32;20079;-76
2022/05/26 11:52:34;;;;;;;1.55;0.60;;;;;;;24.36;40.30;99345.44;4481964;31;20515;-76
2022/05/26 11:55:08;;;;;;;1.05;0.80;;;;;;;24.25;39.83;99339.72;4480062;32;20480;-75
2022/05/26 11:57:49;;;;;;;1.83;0.90;;;;;;;24.29;41.28;99344.66;4477635;32;116919;-74
2022/05/26 12:00:16;;;;;;;2.35;1.02;;;;;;;24.50;38.71;99330.97;4480343;32;20781;-75
2022/05/26 12:03:22;;;;;;;2.03;0.70;;;;;;;25.02;39.68;99327.38;4480973;31;20556;-74
2022/05/26 12:06:12;;;;;;;1.77;0.68;;;;;;;24.65;38.38;99333.38;4481310;31;20089;-75
2022/05/26 12:08:45;;;;;;;1.05;0.70;;;;;;;24.64;37.76;99321.00;4480818;32;20554;-75
2022/05/26 12:11:14;;;;;;;2.62;0.60;;;;;;;24.78;36.18;99324.44;4469915;32;20100;-74
2022/05/26 12:13:42;;;;;;;2.95;0.80;;;;;;;24.44;36.95;99323.78;4483180;32;20208;-74
2022/05/26 12:16:15;;;;;;;0.50;0.50;;;;;;;24.66;37.49;99310.88;4476023;32;20092;-75
2022/05/26 12:18:48;;;;;;;1.12;0.70;;;;;;;24.88;37.09;99306.00;4477941;31;20107;-75
2022/05/26 12:21:27;;;;;;;1.33;0.88;;;;;;;24.55;37.20;99306.19;4484748;31;20115;-75
2022/05/26 12:23:58;;;;;;;1.23;0.70;;;;;;;24.44;38.48;99313.88;4482961;31;20479;-77
2022/05/26 12:26:28;;;;;;;4.10;0.70;;;;;;;24.06;37.04;99303.16;4479147;32;20143;-77
2022/05/26 12:29:34;;;;;;;1.60;0.73;;;;;;;23.96;39.80;99305.44;4483178;32;20111;-76
2022/05/26 12:32:07;;;;;;;2.17;0.62;;;;;;;23.83;37.77;99312.47;4481331;32;20116;-73
2022/05/26 12:34:44;;;;;;;0.55;0.55;;;;;;;23.91;38.29;99298.88;4482858;31;20092;-76